sensor_id;sensor_type;location;lat;lon;timestamp;P1;durP1;ratioP1;P2;durP2;ratioP2
22107;SDS011;11220;48.812;9.128;2022-11-20T00:01:28;1.33;;;0.82;;
22107;SDS011;11220;48.812;9.128;2022-11-20T00:03:54;0.60;;;0.60;;
22107;SDS011;11220;48.812;9.128;2022-11-20T00:06:22;1.08;;;0.70;;
22107;SDS011;11220;48.812;9.128;2022-11-20T00:08:48;0.85;;;0.60;;
22107;SDS011;11220;48.812;9.128;2022-11-20T00:11:15;0.60;;;0.57;;
22107;SDS011;11220;48.812;9.128;2022-11-20T00:13:43;0.60;;;0.50;;
22107;SDS011;11220;48.812;9.128;2022-11-20T00:16:11;0.50;;;0.50;;
22107;SDS011;11220;48.812;9.128;2022-11-20T00:18:38;0.57;;;0.57;;
22107;SDS011;11220;48.812;9.128;2022-11-20T00:21:05;1.00;;;0.75;;
22107;SDS011;11220;48.812;9.128;2022-11-20T00:23:32;1.02;;;0.80;;
22107;SDS011;11220;48.812;9.128;2022-11-20T00:26:00;0.52;;;0.50;;
22107;SDS011;11220;48.812;9.128;2022-11-20T00:28:28;0.70;;;0.70;;
22107;SDS011;11220;48.812;9.128;2022-11-20T00:31:00;0.90;;;0.68;;
22107;SDS011;11220;48.812;9.128;2022-11-20T00:33:29;1.10;;;0.70;;
22107;SDS011;11220;48.812;9.128;2022-11-20T00:35:58;0.70;;;0.60;;
22107;SDS011;11220;48.812;9.128;2022-11-20T00:38:31;1.38;;;0.70;;
22107;SDS011;11220;48.812;9.128;2022-11-20T00:40:58;0.73;;;0.70;;
22107;SDS011;11220;48.812;9.128;2022-11-20T00:43:25;0.80;;;0.65;;
22107;SDS011;11220;48.812;9.128;2022-11-20T00:45:58;0.80;;;0.70;;
22107;SDS011;11220;48.812;9.128;2022-11-20T00:48:28;0.90;;;0.80;;
22107;SDS011;11220;48.812;9.128;2022-11-20T00:50:53;1.17;;;0.88;;
22107;SDS011;11220;48.812;9.128;2022-11-20T00:53:20;0.70;;;0.70;;
22107;SDS011;11220;48.812;9.128;2022-11-20T00:55:55;0.80;;;0.70;;
22107;SDS011;11220;48.812;9.128;2022-11-20T01:00:59;0.68;;;0.63;;
22107;SDS011;11220;48.812;9.128;2022-11-20T01:03:32;1.08;;;0.70;;
22107;SDS011;11220;48.812;9.128;2022-11-20T01:05:59;0.95;;;0.75;;
22107;SDS011;11220;48.812;9.128;2022-11-20T01:08:33;0.85;;;0.80;;
22107;SDS011;11220;48.812;9.128;2022-11-20T01:11:04;3.20;;;0.82;;
22107;SDS011;11220;48.812;9.128;2022-11-20T01:13:34;0.80;;;0.70;;
22107;SDS011;11220;48.812;9.128;2022-11-20T01:18:36;1.00;;;0.90;;
22107;SDS011;11220;48.812;9.128;2022-11-20T01:21:10;0.73;;;0.63;;
22107;SDS011;11220;48.812;9.128;2022-11-20T01:23:39;0.63;;;0.63;;
22107;SDS011;11220;48.812;9.128;2022-11-20T01:26:06;0.85;;;0.70;;
22107;SDS011;11220;48.812;9.128;2022-11-20T01:28:34;0.73;;;0.68;;
22107;SDS011;11220;48.812;9.128;2022-11-20T01:31:00;1.17;;;0.80;;
22107;SDS011;11220;48.812;9.128;2022-11-20T01:33:26;1.00;;;0.63;;
22107;SDS011;11220;48.812;9.128;2022-11-20T01:35:52;0.80;;;0.80;;
22107;SDS011;11220;48.812;9.128;2022-11-20T01:38:18;0.98;;;0.70;;
22107;SDS011;11220;48.812;9.128;2022-11-20T01:40:45;0.60;;;0.60;;
22107;SDS011;11220;48.812;9.128;2022-11-20T01:43:19;1.00;;;0.68;;
22107;SDS011;11220;48.812;9.128;2022-11-20T01:48:30;0.80;;;0.57;;
22107;SDS011;11220;48.812;9.128;2022-11-20T01:51:10;0.77;;;0.60;;
22107;SDS011;11220;48.812;9.128;2022-11-20T01:53:41;1.15;;;0.60;;
22107;SDS011;11220;48.812;9.128;2022-11-20T01:56:08;0.68;;;0.55;;
22107;SDS011;11220;48.812;9.128;2022-11-20T01:58:37;0.63;;;0.60;;
22107;SDS011;11220;48.812;9.128;2022-11-20T02:01:07;0.63;;;0.63;;
22107;SDS011;11220;48.812;9.128;2022-11-20T02:03:32;0.60;;;0.50;;
22107;SDS011;11220;48.812;9.128;2022-11-20T02:06:10;0.60;;;0.52;;
22107;SDS011;11220;48.812;9.128;2022-11-20T02:08:43;0.70;;;0.50;;
22107;SDS011;11220;48.812;9.128;2022-11-20T02:11:08;0.93;;;0.50;;
22107;SDS011;11220;48.812;9.128;2022-11-20T02:13:34;0.82;;;0.45;;
22107;SDS011;11220;48.812;9.128;2022-11-20T02:16:20;0.80;;;0.60;;
22107;SDS011;11220;48.812;9.128;2022-11-20T02:18:46;0.60;;;0.45;;
22107;SDS011;11220;48.812;9.128;2022-11-20T02:21:21;0.60;;;0.60;;
22107;SDS011;11220;48.812;9.128;2022-11-20T02:24:14;0.80;;;0.60;;
22107;SDS011;11220;48.812;9.128;2022-11-20T02:26:59;0.55;;;0.55;;
22107;SDS011;11220;48.812;9.128;2022-11-20T02:32:22;0.77;;;0.73;;
22107;SDS011;11220;48.812;9.128;2022-11-20T02:34:52;0.80;;;0.60;;
22107;SDS011;11220;48.812;9.128;2022-11-20T02:37:18;0.60;;;0.60;;
22107;SDS011;11220;48.812;9.128;2022-11-20T02:39:45;0.60;;;0.60;;
22107;SDS011;11220;48.812;9.128;2022-11-20T02:42:13;0.52;;;0.52;;
22107;SDS011;11220;48.812;9.128;2022-11-20T02:44:42;0.60;;;0.60;;
22107;SDS011;11220;48.812;9.128;2022-11-20T02:47:07;0.70;;;0.40;;
22107;SDS011;11220;48.812;9.128;2022-11-20T02:49:37;0.90;;;0.63;;
22107;SDS011;11220;48.812;9.128;2022-11-20T02:52:03;0.57;;;0.47;;
22107;SDS011;11220;48.812;9.128;2022-11-20T02:54:29;0.77;;;0.77;;
22107;SDS011;11220;48.812;9.128;2022-11-20T02:56:55;0.52;;;0.40;;
22107;SDS011;11220;48.812;9.128;2022-11-20T02:59:28;0.65;;;0.45;;
22107;SDS011;11220;48.812;9.128;2022-11-20T03:01:56;0.85;;;0.60;;
22107;SDS011;11220;48.812;9.128;2022-11-20T03:04:25;0.68;;;0.50;;
22107;SDS011;11220;48.812;9.128;2022-11-20T03:06:50;0.75;;;0.52;;
22107;SDS011;11220;48.812;9.128;2022-11-20T03:09:16;0.47;;;0.40;;
22107;SDS011;11220;48.812;9.128;2022-11-20T03:11:42;0.47;;;0.45;;
22107;SDS011;11220;48.812;9.128;2022-11-20T03:14:07;0.40;;;0.40;;
22107;SDS011;11220;48.812;9.128;2022-11-20T03:16:33;0.40;;;0.40;;
22107;SDS011;11220;48.812;9.128;2022-11-20T03:18:59;0.50;;;0.50;;
22107;SDS011;11220;48.812;9.128;2022-11-20T03:21:25;0.40;;;0.35;;
22107;SDS011;11220;48.812;9.128;2022-11-20T03:23:52;0.82;;;0.40;;
22107;SDS011;11220;48.812;9.128;2022-11-20T03:26:20;0.50;;;0.50;;
22107;SDS011;11220;48.812;9.128;2022-11-20T03:28:49;0.60;;;0.50;;
22107;SDS011;11220;48.812;9.128;2022-11-20T03:31:19;0.47;;;0.43;;
22107;SDS011;11220;48.812;9.128;2022-11-20T03:33:46;0.50;;;0.40;;
22107;SDS011;11220;48.812;9.128;2022-11-20T03:36:12;0.50;;;0.30;;
22107;SDS011;11220;48.812;9.128;2022-11-20T03:38:40;0.38;;;0.30;;
22107;SDS011;11220;48.812;9.128;2022-11-20T03:41:12;0.60;;;0.40;;
22107;SDS011;11220;48.812;9.128;2022-11-20T03:43:49;0.50;;;0.40;;
22107;SDS011;11220;48.812;9.128;2022-11-20T03:46:16;0.52;;;0.30;;
22107;SDS011;11220;48.812;9.128;2022-11-20T03:48:42;0.60;;;0.40;;
22107;SDS011;11220;48.812;9.128;2022-11-20T03:51:08;0.30;;;0.30;;
22107;SDS011;11220;48.812;9.128;2022-11-20T03:53:44;0.68;;;0.40;;
22107;SDS011;11220;48.812;9.128;2022-11-20T03:56:12;0.52;;;0.40;;
22107;SDS011;11220;48.812;9.128;2022-11-20T03:58:40;0.55;;;0.40;;
22107;SDS011;11220;48.812;9.128;2022-11-20T04:01:09;0.57;;;0.40;;
22107;SDS011;11220;48.812;9.128;2022-11-20T04:03:40;0.50;;;0.40;;
22107;SDS011;11220;48.812;9.128;2022-11-20T04:08:43;0.38;;;0.38;;
22107;SDS011;11220;48.812;9.128;2022-11-20T04:11:19;0.40;;;0.40;;
22107;SDS011;11220;48.812;9.128;2022-11-20T04:13:51;0.35;;;0.30;;
22107;SDS011;11220;48.812;9.128;2022-11-20T04:16:18;0.40;;;0.30;;
22107;SDS011;11220;48.812;9.128;2022-11-20T04:18:45;0.50;;;0.50;;
22107;SDS011;11220;48.812;9.128;2022-11-20T04:21:11;0.32;;;0.32;;
22107;SDS011;11220;48.812;9.128;2022-11-20T04:23:37;0.30;;;0.30;;
22107;SDS011;11220;48.812;9.128;2022-11-20T04:26:10;0.40;;;0.40;;
22107;SDS011;11220;48.812;9.128;2022-11-20T04:28:36;0.40;;;0.40;;
22107;SDS011;11220;48.812;9.128;2022-11-20T04:33:29;0.30;;;0.30;;
22107;SDS011;11220;48.812;9.128;2022-11-20T04:35:54;0.45;;;0.40;;
22107;SDS011;11220;48.812;9.128;2022-11-20T04:38:20;0.22;;;0.22;;
22107;SDS011;11220;48.812;9.128;2022-11-20T04:40:45;0.40;;;0.40;;
22107;SDS011;11220;48.812;9.128;2022-11-20T04:43:11;0.88;;;0.50;;
22107;SDS011;11220;48.812;9.128;2022-11-20T04:45:37;0.60;;;0.35;;
22107;SDS011;11220;48.812;9.128;2022-11-20T04:48:05;0.55;;;0.40;;
22107;SDS011;11220;48.812;9.128;2022-11-20T04:50:30;0.20;;;0.20;;
22107;SDS011;11220;48.812;9.128;2022-11-20T04:52:58;0.50;;;0.50;;
22107;SDS011;11220;48.812;9.128;2022-11-20T04:55:24;0.30;;;0.30;;
22107;SDS011;11220;48.812;9.128;2022-11-20T04:57:50;0.50;;;0.30;;
22107;SDS011;11220;48.812;9.128;2022-11-20T05:00:16;0.40;;;0.40;;
22107;SDS011;11220;48.812;9.128;2022-11-20T05:02:42;0.20;;;0.17;;
22107;SDS011;11220;48.812;9.128;2022-11-20T05:05:07;0.30;;;0.30;;
22107;SDS011;11220;48.812;9.128;2022-11-20T05:07:33;0.50;;;0.40;;
22107;SDS011;11220;48.812;9.128;2022-11-20T05:09:59;0.40;;;0.40;;
22107;SDS011;11220;48.812;9.128;2022-11-20T05:12:24;0.30;;;0.30;;
22107;SDS011;11220;48.812;9.128;2022-11-20T05:14:50;0.40;;;0.40;;
22107;SDS011;11220;48.812;9.128;2022-11-20T05:17:15;0.40;;;0.40;;
22107;SDS011;11220;48.812;9.128;2022-11-20T05:19:41;0.30;;;0.22;;
22107;SDS011;11220;48.812;9.128;2022-11-20T05:22:06;1.40;;;0.45;;
22107;SDS011;11220;48.812;9.128;2022-11-20T05:24:32;0.35;;;0.35;;
22107;SDS011;11220;48.812;9.128;2022-11-20T05:26:57;0.30;;;0.30;;
22107;SDS011;11220;48.812;9.128;2022-11-20T05:29:23;0.50;;;0.40;;
22107;SDS011;11220;48.812;9.128;2022-11-20T05:31:48;0.20;;;0.20;;
22107;SDS011;11220;48.812;9.128;2022-11-20T05:34:14;0.40;;;0.30;;
22107;SDS011;11220;48.812;9.128;2022-11-20T05:36:40;0.38;;;0.38;;
22107;SDS011;11220;48.812;9.128;2022-11-20T05:39:05;0.30;;;0.30;;
22107;SDS011;11220;48.812;9.128;2022-11-20T05:41:32;0.20;;;0.20;;
22107;SDS011;11220;48.812;9.128;2022-11-20T05:43:58;0.20;;;0.20;;
22107;SDS011;11220;48.812;9.128;2022-11-20T05:46:24;0.20;;;0.20;;
22107;SDS011;11220;48.812;9.128;2022-11-20T05:48:49;0.30;;;0.30;;
22107;SDS011;11220;48.812;9.128;2022-11-20T05:51:16;0.30;;;0.30;;
22107;SDS011;11220;48.812;9.128;2022-11-20T05:53:43;0.20;;;0.20;;
22107;SDS011;11220;48.812;9.128;2022-11-20T05:56:10;0.20;;;0.20;;
22107;SDS011;11220;48.812;9.128;2022-11-20T05:58:43;0.47;;;0.40;;
22107;SDS011;11220;48.812;9.128;2022-11-20T06:01:11;0.38;;;0.32;;
22107;SDS011;11220;48.812;9.128;2022-11-20T06:03:38;0.45;;;0.40;;
22107;SDS011;11220;48.812;9.128;2022-11-20T06:06:07;0.30;;;0.30;;
22107;SDS011;11220;48.812;9.128;2022-11-20T06:08:33;0.30;;;0.30;;
22107;SDS011;11220;48.812;9.128;2022-11-20T06:11:02;0.30;;;0.30;;
22107;SDS011;11220;48.812;9.128;2022-11-20T06:13:32;0.28;;;0.28;;
22107;SDS011;11220;48.812;9.128;2022-11-20T06:15:58;0.20;;;0.20;;
22107;SDS011;11220;48.812;9.128;2022-11-20T06:18:25;0.20;;;0.20;;
22107;SDS011;11220;48.812;9.128;2022-11-20T06:20:58;0.40;;;0.20;;
22107;SDS011;11220;48.812;9.128;2022-11-20T06:23:29;0.20;;;0.20;;
22107;SDS011;11220;48.812;9.128;2022-11-20T06:25:56;0.20;;;0.20;;
22107;SDS011;11220;48.812;9.128;2022-11-20T06:28:21;0.10;;;0.10;;
22107;SDS011;11220;48.812;9.128;2022-11-20T06:30:47;0.10;;;0.10;;
22107;SDS011;11220;48.812;9.128;2022-11-20T06:33:12;0.20;;;0.10;;
22107;SDS011;11220;48.812;9.128;2022-11-20T06:35:38;0.30;;;0.20;;
22107;SDS011;11220;48.812;9.128;2022-11-20T06:38:04;0.20;;;0.20;;
22107;SDS011;11220;48.812;9.128;2022-11-20T06:40:32;0.10;;;0.10;;
22107;SDS011;11220;48.812;9.128;2022-11-20T06:42:58;0.25;;;0.20;;
22107;SDS011;11220;48.812;9.128;2022-11-20T06:45:23;0.20;;;0.20;;
22107;SDS011;11220;48.812;9.128;2022-11-20T06:47:49;0.32;;;0.20;;
22107;SDS011;11220;48.812;9.128;2022-11-20T06:50:14;0.20;;;0.17;;
22107;SDS011;11220;48.812;9.128;2022-11-20T06:52:40;0.15;;;0.10;;
22107;SDS011;11220;48.812;9.128;2022-11-20T06:55:06;0.13;;;0.10;;
22107;SDS011;11220;48.812;9.128;2022-11-20T06:57:31;0.20;;;0.20;;
22107;SDS011;11220;48.812;9.128;2022-11-20T06:59:57;0.55;;;0.20;;
22107;SDS011;11220;48.812;9.128;2022-11-20T07:02:23;0.22;;;0.22;;
22107;SDS011;11220;48.812;9.128;2022-11-20T07:04:48;0.13;;;0.10;;
22107;SDS011;11220;48.812;9.128;2022-11-20T07:07:14;0.20;;;0.10;;
22107;SDS011;11220;48.812;9.128;2022-11-20T07:09:39;0.10;;;0.10;;
22107;SDS011;11220;48.812;9.128;2022-11-20T07:12:05;0.17;;;0.17;;
22107;SDS011;11220;48.812;9.128;2022-11-20T07:14:31;0.15;;;0.13;;
22107;SDS011;11220;48.812;9.128;2022-11-20T07:16:56;0.13;;;0.13;;
22107;SDS011;11220;48.812;9.128;2022-11-20T07:19:22;0.20;;;0.20;;
22107;SDS011;11220;48.812;9.128;2022-11-20T07:21:47;0.20;;;0.10;;
22107;SDS011;11220;48.812;9.128;2022-11-20T07:24:13;0.20;;;0.20;;
22107;SDS011;11220;48.812;9.128;2022-11-20T07:26:39;0.10;;;0.10;;
22107;SDS011;11220;48.812;9.128;2022-11-20T07:29:04;0.10;;;0.10;;
22107;SDS011;11220;48.812;9.128;2022-11-20T07:31:30;0.10;;;0.10;;
22107;SDS011;11220;48.812;9.128;2022-11-20T07:33:55;0.10;;;0.10;;
22107;SDS011;11220;48.812;9.128;2022-11-20T07:36:21;0.13;;;0.10;;
22107;SDS011;11220;48.812;9.128;2022-11-20T07:38:47;0.30;;;0.20;;
22107;SDS011;11220;48.812;9.128;2022-11-20T07:41:25;0.82;;;0.22;;
22107;SDS011;11220;48.812;9.128;2022-11-20T07:43:50;0.30;;;0.10;;
22107;SDS011;11220;48.812;9.128;2022-11-20T07:46:16;0.20;;;0.20;;
22107;SDS011;11220;48.812;9.128;2022-11-20T07:48:41;0.10;;;0.10;;
22107;SDS011;11220;48.812;9.128;2022-11-20T07:51:07;0.10;;;0.10;;
22107;SDS011;11220;48.812;9.128;2022-11-20T07:53:33;0.10;;;0.10;;
22107;SDS011;11220;48.812;9.128;2022-11-20T07:55:59;0.43;;;0.22;;
22107;SDS011;11220;48.812;9.128;2022-11-20T07:58:25;0.32;;;0.17;;
22107;SDS011;11220;48.812;9.128;2022-11-20T08:00:51;0.17;;;0.17;;
22107;SDS011;11220;48.812;9.128;2022-11-20T08:03:16;0.20;;;0.20;;
22107;SDS011;11220;48.812;9.128;2022-11-20T08:05:42;0.22;;;0.20;;
22107;SDS011;11220;48.812;9.128;2022-11-20T08:08:08;0.30;;;0.20;;
22107;SDS011;11220;48.812;9.128;2022-11-20T08:10:33;0.13;;;0.13;;
22107;SDS011;11220;48.812;9.128;2022-11-20T08:12:59;0.10;;;0.10;;
22107;SDS011;11220;48.812;9.128;2022-11-20T08:15:47;0.17;;;0.13;;
22107;SDS011;11220;48.812;9.128;2022-11-20T08:18:16;0.28;;;0.20;;
22107;SDS011;11220;48.812;9.128;2022-11-20T08:20:42;0.55;;;0.10;;
22107;SDS011;11220;48.812;9.128;2022-11-20T08:23:09;0.20;;;0.20;;
22107;SDS011;11220;48.812;9.128;2022-11-20T08:25:35;0.13;;;0.13;;
22107;SDS011;11220;48.812;9.128;2022-11-20T08:28:03;0.10;;;0.10;;
22107;SDS011;11220;48.812;9.128;2022-11-20T08:30:31;0.32;;;0.10;;
22107;SDS011;11220;48.812;9.128;2022-11-20T08:33:04;0.47;;;0.17;;
22107;SDS011;11220;48.812;9.128;2022-11-20T08:35:33;0.20;;;0.10;;
22107;SDS011;11220;48.812;9.128;2022-11-20T08:38:00;0.20;;;0.10;;
22107;SDS011;11220;48.812;9.128;2022-11-20T08:40:26;0.10;;;0.10;;
22107;SDS011;11220;48.812;9.128;2022-11-20T08:42:52;0.20;;;0.20;;
22107;SDS011;11220;48.812;9.128;2022-11-20T08:45:18;0.20;;;0.10;;
22107;SDS011;11220;48.812;9.128;2022-11-20T08:47:44;0.28;;;0.10;;
22107;SDS011;11220;48.812;9.128;2022-11-20T08:50:11;0.10;;;0.10;;
22107;SDS011;11220;48.812;9.128;2022-11-20T08:52:38;0.20;;;0.20;;
22107;SDS011;11220;48.812;9.128;2022-11-20T08:55:04;0.10;;;0.10;;
22107;SDS011;11220;48.812;9.128;2022-11-20T08:57:35;0.17;;;0.17;;
22107;SDS011;11220;48.812;9.128;2022-11-20T09:00:02;0.05;;;0.05;;
22107;SDS011;11220;48.812;9.128;2022-11-20T09:02:29;0.15;;;0.10;;
22107;SDS011;11220;48.812;9.128;2022-11-20T09:04:55;0.10;;;0.00;;
22107;SDS011;11220;48.812;9.128;2022-11-20T09:07:21;0.00;;;0.00;;
22107;SDS011;11220;48.812;9.128;2022-11-20T09:09:47;0.22;;;0.10;;
22107;SDS011;11220;48.812;9.128;2022-11-20T09:12:12;0.10;;;0.10;;
22107;SDS011;11220;48.812;9.128;2022-11-20T09:14:38;0.10;;;0.10;;
22107;SDS011;11220;48.812;9.128;2022-11-20T09:17:04;0.10;;;0.10;;
22107;SDS011;11220;48.812;9.128;2022-11-20T09:19:30;0.08;;;0.08;;
22107;SDS011;11220;48.812;9.128;2022-11-20T09:21:55;0.10;;;0.00;;
22107;SDS011;11220;48.812;9.128;2022-11-20T09:24:21;0.10;;;0.05;;
22107;SDS011;11220;48.812;9.128;2022-11-20T09:26:47;0.00;;;0.00;;
22107;SDS011;11220;48.812;9.128;2022-11-20T09:29:13;0.13;;;0.10;;
22107;SDS011;11220;48.812;9.128;2022-11-20T09:31:38;0.10;;;0.10;;
22107;SDS011;11220;48.812;9.128;2022-11-20T09:34:04;0.10;;;0.10;;
22107;SDS011;11220;48.812;9.128;2022-11-20T09:36:29;0.32;;;0.10;;
22107;SDS011;11220;48.812;9.128;2022-11-20T09:38:55;0.10;;;0.00;;
22107;SDS011;11220;48.812;9.128;2022-11-20T09:44:06;0.10;;;0.10;;
22107;SDS011;11220;48.812;9.128;2022-11-20T09:47:01;0.00;;;0.00;;
22107;SDS011;11220;48.812;9.128;2022-11-20T09:55:16;0.10;;;0.10;;
22107;SDS011;11220;48.812;9.128;2022-11-20T09:57:43;0.40;;;0.00;;
22107;SDS011;11220;48.812;9.128;2022-11-20T10:00:12;0.00;;;0.00;;
22107;SDS011;11220;48.812;9.128;2022-11-20T10:02:49;0.10;;;0.10;;
22107;SDS011;11220;48.812;9.128;2022-11-20T10:10:46;0.32;;;0.10;;
22107;SDS011;11220;48.812;9.128;2022-11-20T10:16:32;0.00;;;0.00;;
22107;SDS011;11220;48.812;9.128;2022-11-20T10:21:59;0.00;;;0.00;;
22107;SDS011;11220;48.812;9.128;2022-11-20T10:30:09;0.10;;;0.00;;
22107;SDS011;11220;48.812;9.128;2022-11-20T10:32:38;0.08;;;0.08;;
22107;SDS011;11220;48.812;9.128;2022-11-20T10:35:26;0.13;;;0.00;;
22107;SDS011;11220;48.812;9.128;2022-11-20T10:37:59;0.10;;;0.10;;
22107;SDS011;11220;48.812;9.128;2022-11-20T10:40:44;0.00;;;0.00;;
22107;SDS011;11220;48.812;9.128;2022-11-20T10:43:18;0.10;;;0.00;;
22107;SDS011;11220;48.812;9.128;2022-11-20T10:48:22;0.10;;;0.10;;
22107;SDS011;11220;48.812;9.128;2022-11-20T10:56:11;0.28;;;0.00;;
22107;SDS011;11220;48.812;9.128;2022-11-20T11:01:47;0.10;;;0.10;;
22107;SDS011;11220;48.812;9.128;2022-11-20T11:04:23;0.10;;;0.10;;
22107;SDS011;11220;48.812;9.128;2022-11-20T11:06:54;0.35;;;0.30;;
22107;SDS011;11220;48.812;9.128;2022-11-20T11:09:50;0.20;;;0.10;;
22107;SDS011;11220;48.812;9.128;2022-11-20T11:12:24;0.28;;;0.10;;
22107;SDS011;11220;48.812;9.128;2022-11-20T11:14:54;0.10;;;0.10;;
22107;SDS011;11220;48.812;9.128;2022-11-20T11:17:28;0.10;;;0.10;;
22107;SDS011;11220;48.812;9.128;2022-11-20T11:20:15;0.75;;;0.20;;
22107;SDS011;11220;48.812;9.128;2022-11-20T11:22:44;0.10;;;0.10;;
22107;SDS011;11220;48.812;9.128;2022-11-20T11:25:30;0.75;;;0.20;;
22107;SDS011;11220;48.812;9.128;2022-11-20T11:28:04;0.55;;;0.20;;
22107;SDS011;11220;48.812;9.128;2022-11-20T11:30:43;0.10;;;0.10;;
22107;SDS011;11220;48.812;9.128;2022-11-20T11:33:11;0.20;;;0.13;;
22107;SDS011;11220;48.812;9.128;2022-11-20T11:35:44;0.35;;;0.20;;
22107;SDS011;11220;48.812;9.128;2022-11-20T11:38:12;0.20;;;0.10;;
22107;SDS011;11220;48.812;9.128;2022-11-20T11:40:41;0.20;;;0.15;;
22107;SDS011;11220;48.812;9.128;2022-11-20T11:43:16;0.52;;;0.10;;
22107;SDS011;11220;48.812;9.128;2022-11-20T11:46:25;1.38;;;0.20;;
22107;SDS011;11220;48.812;9.128;2022-11-20T11:51:38;0.43;;;0.08;;
22107;SDS011;11220;48.812;9.128;2022-11-20T11:54:15;0.32;;;0.28;;
22107;SDS011;11220;48.812;9.128;2022-11-20T11:56:45;0.20;;;0.15;;
22107;SDS011;11220;48.812;9.128;2022-11-20T11:59:12;0.30;;;0.10;;
22107;SDS011;11220;48.812;9.128;2022-11-20T12:01:50;0.40;;;0.30;;
22107;SDS011;11220;48.812;9.128;2022-11-20T12:04:37;0.50;;;0.20;;
22107;SDS011;11220;48.812;9.128;2022-11-20T12:07:12;0.20;;;0.20;;
22107;SDS011;11220;48.812;9.128;2022-11-20T12:09:46;0.30;;;0.20;;
22107;SDS011;11220;48.812;9.128;2022-11-20T12:12:20;0.28;;;0.20;;
22107;SDS011;11220;48.812;9.128;2022-11-20T12:14:52;0.47;;;0.30;;
22107;SDS011;11220;48.812;9.128;2022-11-20T12:17:20;0.25;;;0.20;;
22107;SDS011;11220;48.812;9.128;2022-11-20T12:19:46;0.35;;;0.25;;
22107;SDS011;11220;48.812;9.128;2022-11-20T12:25:17;0.60;;;0.20;;
22107;SDS011;11220;48.812;9.128;2022-11-20T12:27:57;1.23;;;0.30;;
22107;SDS011;11220;48.812;9.128;2022-11-20T12:30:35;0.20;;;0.20;;
22107;SDS011;11220;48.812;9.128;2022-11-20T12:35:52;0.40;;;0.25;;
22107;SDS011;11220;48.812;9.128;2022-11-20T12:38:36;0.25;;;0.10;;
22107;SDS011;11220;48.812;9.128;2022-11-20T12:44:05;0.50;;;0.10;;
22107;SDS011;11220;48.812;9.128;2022-11-20T12:52:42;0.20;;;0.20;;
22107;SDS011;11220;48.812;9.128;2022-11-20T13:06:54;0.10;;;0.10;;
22107;SDS011;11220;48.812;9.128;2022-11-20T13:09:21;0.30;;;0.20;;
22107;SDS011;11220;48.812;9.128;2022-11-20T13:14:34;0.30;;;0.30;;
22107;SDS011;11220;48.812;9.128;2022-11-20T13:17:50;0.47;;;0.10;;
22107;SDS011;11220;48.812;9.128;2022-11-20T13:20:00;0.38;;;0.20;;
22107;SDS011;11220;48.812;9.128;2022-11-20T13:22:42;0.20;;;0.20;;
22107;SDS011;11220;48.812;9.128;2022-11-20T13:25:25;0.20;;;0.15;;
22107;SDS011;11220;48.812;9.128;2022-11-20T13:27:56;0.25;;;0.20;;
22107;SDS011;11220;48.812;9.128;2022-11-20T13:30:24;0.40;;;0.20;;
22107;SDS011;11220;48.812;9.128;2022-11-20T13:32:52;0.57;;;0.20;;
22107;SDS011;11220;48.812;9.128;2022-11-20T13:35:23;0.55;;;0.20;;
22107;SDS011;11220;48.812;9.128;2022-11-20T13:38:01;0.32;;;0.10;;
22107;SDS011;11220;48.812;9.128;2022-11-20T13:40:38;0.90;;;0.13;;
22107;SDS011;11220;48.812;9.128;2022-11-20T13:45:56;0.30;;;0.20;;
22107;SDS011;11220;48.812;9.128;2022-11-20T14:01:58;0.10;;;0.10;;
22107;SDS011;11220;48.812;9.128;2022-11-20T14:04:35;0.20;;;0.20;;
22107;SDS011;11220;48.812;9.128;2022-11-20T14:07:04;0.30;;;0.30;;
22107;SDS011;11220;48.812;9.128;2022-11-20T14:09:31;0.82;;;0.30;;
22107;SDS011;11220;48.812;9.128;2022-11-20T14:11:59;0.20;;;0.20;;
22107;SDS011;11220;48.812;9.128;2022-11-20T14:14:26;0.38;;;0.20;;
22107;SDS011;11220;48.812;9.128;2022-11-20T14:17:05;0.50;;;0.20;;
22107;SDS011;11220;48.812;9.128;2022-11-20T14:19:32;0.30;;;0.17;;
22107;SDS011;11220;48.812;9.128;2022-11-20T14:22:08;0.30;;;0.30;;
22107;SDS011;11220;48.812;9.128;2022-11-20T14:24:44;0.20;;;0.20;;
22107;SDS011;11220;48.812;9.128;2022-11-20T14:27:14;0.30;;;0.30;;
22107;SDS011;11220;48.812;9.128;2022-11-20T14:29:42;0.13;;;0.10;;
22107;SDS011;11220;48.812;9.128;2022-11-20T14:32:09;0.20;;;0.20;;
22107;SDS011;11220;48.812;9.128;2022-11-20T14:34:37;0.22;;;0.20;;
22107;SDS011;11220;48.812;9.128;2022-11-20T14:37:12;0.20;;;0.20;;
22107;SDS011;11220;48.812;9.128;2022-11-20T14:39:48;0.75;;;0.13;;
22107;SDS011;11220;48.812;9.128;2022-11-20T14:42:17;0.30;;;0.20;;
22107;SDS011;11220;48.812;9.128;2022-11-20T14:47:13;0.32;;;0.30;;
22107;SDS011;11220;48.812;9.128;2022-11-20T14:49:43;0.50;;;0.40;;
22107;SDS011;11220;48.812;9.128;2022-11-20T14:52:11;0.70;;;0.35;;
22107;SDS011;11220;48.812;9.128;2022-11-20T14:54:46;0.40;;;0.20;;
22107;SDS011;11220;48.812;9.128;2022-11-20T15:02:43;0.70;;;0.22;;
22107;SDS011;11220;48.812;9.128;2022-11-20T15:05:10;0.20;;;0.10;;
22107;SDS011;11220;48.812;9.128;2022-11-20T15:07:38;0.88;;;0.20;;
22107;SDS011;11220;48.812;9.128;2022-11-20T15:13:33;0.40;;;0.20;;
22107;SDS011;11220;48.812;9.128;2022-11-20T15:15:50;0.13;;;0.10;;
22107;SDS011;11220;48.812;9.128;2022-11-20T15:18:21;0.88;;;0.30;;
22107;SDS011;11220;48.812;9.128;2022-11-20T15:20:47;0.25;;;0.20;;
22107;SDS011;11220;48.812;9.128;2022-11-20T15:23:16;0.38;;;0.30;;
22107;SDS011;11220;48.812;9.128;2022-11-20T15:25:46;0.10;;;0.10;;
22107;SDS011;11220;48.812;9.128;2022-11-20T15:28:21;0.20;;;0.10;;
22107;SDS011;11220;48.812;9.128;2022-11-20T15:30:57;0.10;;;0.10;;
22107;SDS011;11220;48.812;9.128;2022-11-20T15:33:23;0.70;;;0.20;;
22107;SDS011;11220;48.812;9.128;2022-11-20T15:35:49;0.35;;;0.20;;
22107;SDS011;11220;48.812;9.128;2022-11-20T15:38:15;0.30;;;0.10;;
22107;SDS011;11220;48.812;9.128;2022-11-20T15:40:40;0.20;;;0.10;;
22107;SDS011;11220;48.812;9.128;2022-11-20T15:43:06;0.47;;;0.20;;
22107;SDS011;11220;48.812;9.128;2022-11-20T15:45:33;0.50;;;0.20;;
22107;SDS011;11220;48.812;9.128;2022-11-20T15:48:16;0.77;;;0.40;;
22107;SDS011;11220;48.812;9.128;2022-11-20T15:50:50;0.45;;;0.30;;
22107;SDS011;11220;48.812;9.128;2022-11-20T15:53:19;0.43;;;0.20;;
22107;SDS011;11220;48.812;9.128;2022-11-20T15:55:45;0.30;;;0.20;;
22107;SDS011;11220;48.812;9.128;2022-11-20T15:58:10;0.40;;;0.20;;
22107;SDS011;11220;48.812;9.128;2022-11-20T16:00:36;0.40;;;0.22;;
22107;SDS011;11220;48.812;9.128;2022-11-20T16:03:01;0.50;;;0.20;;
22107;SDS011;11220;48.812;9.128;2022-11-20T16:05:28;0.20;;;0.20;;
22107;SDS011;11220;48.812;9.128;2022-11-20T16:07:54;0.75;;;0.30;;
22107;SDS011;11220;48.812;9.128;2022-11-20T16:10:19;0.60;;;0.28;;
22107;SDS011;11220;48.812;9.128;2022-11-20T16:12:45;0.40;;;0.20;;
22107;SDS011;11220;48.812;9.128;2022-11-20T16:15:29;0.25;;;0.22;;
22107;SDS011;11220;48.812;9.128;2022-11-20T16:18:11;0.20;;;0.10;;
22107;SDS011;11220;48.812;9.128;2022-11-20T16:20:42;0.75;;;0.20;;
22107;SDS011;11220;48.812;9.128;2022-11-20T16:23:08;0.40;;;0.30;;
22107;SDS011;11220;48.812;9.128;2022-11-20T16:25:33;0.82;;;0.10;;
22107;SDS011;11220;48.812;9.128;2022-11-20T16:27:59;0.40;;;0.10;;
22107;SDS011;11220;48.812;9.128;2022-11-20T16:30:25;0.40;;;0.20;;
22107;SDS011;11220;48.812;9.128;2022-11-20T16:32:51;0.20;;;0.10;;
22107;SDS011;11220;48.812;9.128;2022-11-20T16:35:16;0.30;;;0.10;;
22107;SDS011;11220;48.812;9.128;2022-11-20T16:37:42;0.35;;;0.10;;
22107;SDS011;11220;48.812;9.128;2022-11-20T16:40:08;0.45;;;0.10;;
22107;SDS011;11220;48.812;9.128;2022-11-20T16:42:35;0.10;;;0.10;;
22107;SDS011;11220;48.812;9.128;2022-11-20T16:45:02;0.75;;;0.28;;
22107;SDS011;11220;48.812;9.128;2022-11-20T16:47:28;0.85;;;0.13;;
22107;SDS011;11220;48.812;9.128;2022-11-20T16:49:58;0.30;;;0.20;;
22107;SDS011;11220;48.812;9.128;2022-11-20T16:52:24;0.20;;;0.17;;